Time;durP1;ratioP1;P1;durP2;ratioP2;P2;SDS_P1;SDS_P2;PMS_P1;PMS_P2;Temp;Humidity;BMP_temperature;BMP_pressure;BME280_temperature;BME280_humidity;BME280_pressure;Samples;Min_cycle;Max_cycle;Signal;HPM_P1;HPM_P2
2023/12/20 00:00:25;;;;;;;1.65;1.00;;;;;;;4.35;75.87;98022.66;5084645;28;20039;-56
2023/12/20 00:02:51;;;;;;;1.38;0.95;;;;;;;4.30;76.56;98030.97;5091973;28;20035;-57
2023/12/20 00:05:17;;;;;;;1.48;0.98;;;;;;;4.25;76.43;98035.81;5091616;28;20024;-53
2023/12/20 00:07:42;;;;;;;1.92;0.85;;;;;;;4.23;76.07;98024.50;5073819;28;20040;-56
2023/12/20 00:10:08;;;;;;;1.30;1.05;;;;;;;4.16;75.97;98035.63;5073934;28;20021;-55
2023/12/20 00:12:34;;;;;;;1.08;0.77;;;;;;;4.10;76.42;98024.69;5073340;28;20103;-52
2023/12/20 00:14:59;;;;;;;2.53;1.20;;;;;;;3.87;76.79;97999.16;5082722;28;20032;-58
2023/12/20 00:17:25;;;;;;;1.95;1.20;;;;;;;3.93;76.54;98026.09;5093352;28;20347;-53
2023/12/20 00:19:51;;;;;;;1.95;0.93;;;;;;;3.99;77.17;98033.53;5093684;28;20471;-52
2023/12/20 00:22:16;;;;;;;1.35;1.00;;;;;;;4.10;77.32;98049.38;5093590;28;20043;-57
2023/12/20 00:24:42;;;;;;;1.33;1.00;;;;;;;4.18;76.41;98053.19;5093452;28;20382;-52
2023/12/20 00:27:07;;;;;;;1.10;1.00;;;;;;;4.28;76.22;98040.84;5077258;28;20029;-49
2023/12/20 00:29:33;;;;;;;2.40;1.25;;;;;;;4.35;75.83;98050.00;5081047;28;20094;-51
2023/12/20 00:31:58;;;;;;;3.92;1.20;;;;;;;4.44;75.82;98043.91;5093424;28;20043;-52
2023/12/20 00:34:24;;;;;;;2.45;1.13;;;;;;;4.48;75.11;98025.09;5093674;28;20032;-53
2023/12/20 00:36:49;;;;;;;2.00;1.23;;;;;;;4.59;74.94;98038.31;5092162;28;20115;-51
2023/12/20 00:39:15;;;;;;;2.50;1.30;;;;;;;4.67;75.24;98042.94;5093166;28;20031;-49
2023/12/20 00:41:40;;;;;;;2.88;1.35;;;;;;;4.71;75.12;98057.63;5093493;28;20383;-49
2023/12/20 00:44:06;;;;;;;2.60;1.40;;;;;;;4.72;74.94;98051.34;5085748;28;20090;-50
2023/12/20 00:46:32;;;;;;;2.10;1.52;;;;;;;4.76;74.35;98052.78;5072423;28;20033;-52
2023/12/20 00:48:57;;;;;;;2.00;1.63;;;;;;;4.82;74.86;98059.34;5072956;28;20029;-53
2023/12/20 00:51:23;;;;;;;2.67;2.00;;;;;;;4.84;74.82;98055.59;5072584;28;20034;-53
2023/12/20 00:53:50;;;;;;;2.40;1.58;;;;;;;4.88;74.66;98058.84;5073723;28;20028;-53
2023/12/20 00:56:16;;;;;;;1.60;1.50;;;;;;;4.91;74.06;98045.31;5072567;28;20040;-51
2023/12/20 00:58:41;;;;;;;2.17;1.88;;;;;;;4.96;74.07;98059.00;5072901;28;20025;-58
2023/12/20 01:01:07;;;;;;;2.35;1.60;;;;;;;4.96;73.88;98043.09;5072274;28;20098;-55
2023/12/20 01:03:32;;;;;;;2.00;1.80;;;;;;;4.96;74.23;98040.44;5072285;28;20152;-56
2023/12/20 01:05:58;;;;;;;2.22;1.63;;;;;;;4.98;74.06;98035.84;5072677;28;20119;-54
2023/12/20 01:08:23;;;;;;;3.78;2.10;;;;;;;4.96;74.30;98034.31;5082859;28;20024;-52
2023/12/20 01:10:49;;;;;;;2.40;1.83;;;;;;;4.91;74.04;98029.41;5092861;28;20031;-57
2023/12/20 01:13:14;;;;;;;2.30;1.55;;;;;;;4.90;73.80;98033.03;5092430;28;20035;-54
2023/12/20 01:15:40;;;;;;;1.70;1.60;;;;;;;4.78;73.81;98032.25;5091138;28;20049;-54
2023/12/20 01:18:05;;;;;;;3.10;1.80;;;;;;;4.42;74.15;97982.25;5089433;28;20042;-56
2023/12/20 01:20:31;;;;;;;1.85;1.40;;;;;;;4.49;74.68;97997.63;5092002;28;20116;-55
2023/12/20 01:22:57;;;;;;;3.15;2.00;;;;;;;4.54;74.61;98019.28;5082769;28;20119;-54
2023/12/20 01:25:22;;;;;;;2.13;1.77;;;;;;;4.28;74.92;97964.03;5072763;28;20032;-56
2023/12/20 01:27:48;;;;;;;2.33;1.75;;;;;;;4.54;74.58;98006.03;5072281;28;20447;-54
2023/12/20 01:30:14;;;;;;;2.67;1.95;;;;;;;4.50;74.66;98016.06;5071976;28;20037;-53
2023/12/20 01:32:40;;;;;;;2.25;1.58;;;;;;;4.45;74.71;98011.16;5072174;28;20077;-56
2023/12/20 01:35:06;;;;;;;2.80;1.50;;;;;;;4.43;75.22;98022.84;5072627;28;20443;-55
2023/12/20 01:37:31;;;;;;;4.00;1.67;;;;;;;4.47;74.83;98015.47;5079174;28;20024;-55
2023/12/20 01:39:57;;;;;;;2.03;1.83;;;;;;;4.37;74.75;98005.66;5092393;28;20434;-57
2023/12/20 01:42:23;;;;;;;2.00;1.35;;;;;;;4.39;74.38;98013.47;5092457;28;20403;-57
2023/12/20 01:44:48;;;;;;;1.60;1.40;;;;;;;4.33;75.04;98019.28;5092653;28;20020;-58
2023/12/20 01:47:14;;;;;;;2.00;1.55;;;;;;;4.28;74.80;98001.97;5092562;28;20166;-55
2023/12/20 01:49:40;;;;;;;3.35;1.70;;;;;;;4.29;74.52;97990.41;5092061;28;20039;-56
2023/12/20 01:52:06;;;;;;;2.30;1.50;;;;;;;4.32;74.92;97986.63;5090299;28;20093;-57
2023/12/20 01:54:32;;;;;;;2.40;1.25;;;;;;;4.04;74.35;97951.06;5073577;28;20032;-54
2023/12/20 01:56:58;;;;;;;2.13;1.30;;;;;;;4.22;74.90;97981.31;5072377;28;20029;-60
2023/12/20 01:59:24;;;;;;;2.25;1.23;;;;;;;4.15;75.21;98002.16;5079993;28;20039;-53
2023/12/20 02:01:50;;;;;;;4.28;1.10;;;;;;;4.09;74.57;98002.66;5092017;28;20067;-56
2023/12/20 02:04:16;;;;;;;3.28;1.13;;;;;;;4.03;75.03;97997.88;5091748;28;20108;-55
2023/12/20 02:06:43;;;;;;;2.53;1.02;;;;;;;4.11;75.33;97997.25;5072456;28;20174;-56
2023/12/20 02:09:09;;;;;;;2.35;1.15;;;;;;;4.14;75.13;97995.19;5071549;28;20025;-54
2023/12/20 02:11:36;;;;;;;2.55;0.93;;;;;;;4.24;75.08;97995.25;5071574;28;20028;-55
2023/12/20 02:14:01;;;;;;;1.85;0.85;;;;;;;4.31;74.35;97980.53;5070763;28;20423;-54
2023/12/20 02:16:27;;;;;;;3.95;1.00;;;;;;;4.44;73.86;97998.88;5070718;28;20040;-51
2023/12/20 02:18:53;;;;;;;3.25;0.95;;;;;;;4.50;73.88;97983.41;5071590;28;20028;-57
2023/12/20 02:21:25;;;;;;;1.83;0.98;;;;;;;4.49;73.41;97948.13;5072364;28;20112;-52
2023/12/20 02:23:50;;;;;;;3.22;1.02;;;;;;;4.60;73.67;97957.81;5071740;28;20037;-56
2023/12/20 02:26:16;;;;;;;1.40;0.82;;;;;;;4.58;72.76;97954.44;5070842;28;20025;-57
2023/12/20 02:28:42;;;;;;;2.97;0.80;;;;;;;4.53;72.47;97978.69;5073875;28;20040;-55
2023/12/20 02:31:08;;;;;;;1.30;0.70;;;;;;;4.33;73.19;97961.81;5075347;28;20071;-54
2023/12/20 02:33:33;;;;;;;2.58;0.63;;;;;;;4.38;73.06;97964.94;5075091;28;20063;-55
2023/12/20 02:35:59;;;;;;;3.38;0.82;;;;;;;4.43;73.50;97973.34;5075403;28;20040;-55
2023/12/20 02:38:24;;;;;;;3.50;1.02;;;;;;;4.53;72.89;97973.41;5075488;28;20028;-56
2023/12/20 02:40:50;;;;;;;1.45;0.65;;;;;;;4.53;73.20;97961.94;5074843;28;20030;-59
2023/12/20 02:43:15;;;;;;;1.55;0.50;;;;;;;4.64;72.80;97985.72;5076038;28;20034;-56
2023/12/20 02:45:41;;;;;;;1.58;0.90;;;;;;;4.66;72.42;97983.78;5074519;28;20040;-54
2023/12/20 02:48:07;;;;;;;1.40;0.63;;;;;;;4.70;72.37;97990.50;5074628;28;20124;-53
2023/12/20 02:50:32;;;;;;;2.60;0.95;;;;;;;4.72;72.21;97980.59;5075034;28;20401;-55
2023/12/20 02:52:58;;;;;;;2.22;0.80;;;;;;;4.81;72.26;97992.22;5082598;28;20055;-57
2023/12/20 02:55:23;;;;;;;3.13;1.05;;;;;;;4.84;72.08;97983.19;5094524;28;20127;-52
2023/12/20 02:57:49;;;;;;;1.65;1.23;;;;;;;4.86;71.91;97994.50;5093082;28;20024;-54
2023/12/20 03:00:33;;;;;;;2.83;1.35;;;;;;;4.85;72.29;97987.50;5095140;28;20040;-57
2023/12/20 03:02:59;;;;;;;3.25;1.80;;;;;;;4.90;72.07;97985.28;5094887;28;20461;-56
2023/12/20 03:05:25;;;;;;;3.58;1.48;;;;;;;4.91;71.67;97986.13;5094965;28;20024;-56
2023/12/20 03:07:51;;;;;;;2.83;1.42;;;;;;;4.90;71.57;97977.34;5094872;28;20024;-54
2023/12/20 03:10:18;;;;;;;3.35;1.55;;;;;;;4.92;72.11;97972.72;5095088;28;20032;-55
2023/12/20 03:12:44;;;;;;;2.75;1.35;;;;;;;4.94;71.87;97961.97;5093077;28;20035;-56
2023/12/20 03:15:10;;;;;;;1.95;1.63;;;;;;;4.95;72.23;97977.75;5094507;28;20381;-56
2023/12/20 03:17:36;;;;;;;3.13;1.75;;;;;;;4.98;71.90;97985.44;5092558;28;20089;-54
2023/12/20 03:20:02;;;;;;;3.10;1.80;;;;;;;4.72;71.85;97935.53;5095121;28;20028;-55
2023/12/20 03:22:27;;;;;;;3.88;1.73;;;;;;;5.00;71.81;97986.16;5094925;28;20085;-55
2023/12/20 03:24:53;;;;;;;3.17;1.83;;;;;;;4.94;71.80;97969.94;5094142;28;20311;-55
2023/12/20 03:27:18;;;;;;;3.85;1.63;;;;;;;4.93;72.10;97976.22;5094315;28;20116;-56
2023/12/20 03:29:44;;;;;;;3.05;1.80;;;;;;;4.85;72.62;97967.13;5093915;28;20083;-55
2023/12/20 03:32:11;;;;;;;2.55;1.45;;;;;;;4.57;72.11;97937.69;5083961;28;20040;-57
2023/12/20 03:34:37;;;;;;;1.80;1.40;;;;;;;4.75;73.05;97971.56;5073850;28;20036;-58
2023/12/20 03:37:02;;;;;;;2.72;1.70;;;;;;;4.73;73.04;97963.72;5077011;28;20154;-53
2023/12/20 03:39:28;;;;;;;2.08;1.65;;;;;;;4.77;72.92;97971.41;5073835;28;20044;-56
2023/12/20 03:41:53;;;;;;;2.67;1.80;;;;;;;4.73;72.89;97955.75;5074491;28;20040;-55
2023/12/20 03:44:20;;;;;;;2.75;1.88;;;;;;;4.76;72.96;97972.38;5073732;28;20028;-58
2023/12/20 03:46:45;;;;;;;3.38;1.95;;;;;;;4.51;73.58;97922.34;5082196;28;20428;-56
2023/12/20 03:49:11;;;;;;;5.10;2.42;;;;;;;4.81;73.38;97981.63;5094599;28;20123;-56
2023/12/20 03:51:37;;;;;;;3.65;2.10;;;;;;;4.79;73.46;97978.25;5085770;28;20443;-58
2023/12/20 03:54:03;;;;;;;4.55;2.20;;;;;;;4.83;72.81;97974.38;5073008;28;20051;-57
2023/12/20 03:56:28;;;;;;;3.90;2.22;;;;;;;4.84;72.92;97981.34;5084866;28;20107;-56
2023/12/20 03:58:54;;;;;;;4.00;1.98;;;;;;;4.87;72.57;97993.50;5094208;28;20131;-56
2023/12/20 04:01:19;;;;;;;2.50;2.30;;;;;;;4.81;72.59;97986.91;5085156;28;20033;-55
2023/12/20 04:03:45;;;;;;;3.70;2.17;;;;;;;4.81;72.84;97980.75;5073249;28;20606;-57
2023/12/20 04:06:15;;;;;;;4.28;2.80;;;;;;;4.79;72.33;97980.91;5073115;28;20032;-55
2023/12/20 04:08:41;;;;;;;3.45;2.78;;;;;;;4.84;73.06;97991.13;5073083;28;20329;-54
2023/12/20 04:11:06;;;;;;;5.20;2.67;;;;;;;4.83;72.76;97984.97;5073197;28;20086;-58
2023/12/20 04:13:32;;;;;;;5.30;2.90;;;;;;;4.84;73.26;97986.66;5073417;28;20037;-55
2023/12/20 04:15:57;;;;;;;3.40;2.75;;;;;;;4.84;72.59;97993.78;5078883;28;20427;-56
2023/12/20 04:18:23;;;;;;;3.63;2.65;;;;;;;4.91;72.82;97986.13;5092708;28;20462;-58
2023/12/20 04:20:49;;;;;;;4.75;2.75;;;;;;;4.89;72.54;97988.91;5076334;28;20025;-54
2023/12/20 04:23:15;;;;;;;4.50;2.58;;;;;;;4.93;72.05;97978.84;5072818;28;20092;-57
2023/12/20 04:25:40;;;;;;;4.22;2.88;;;;;;;4.82;72.83;97967.38;5073346;28;20036;-57
2023/12/20 04:28:06;;;;;;;4.07;3.10;;;;;;;4.86;72.36;97984.69;5072140;28;20040;-57
2023/12/20 04:30:32;;;;;;;5.32;2.60;;;;;;;4.96;72.20;97998.00;5077375;28;20035;-58
2023/12/20 04:32:57;;;;;;;6.40;2.92;;;;;;;4.99;72.13;98000.38;5103108;28;20491;-55
2023/12/20 04:35:23;;;;;;;4.78;2.88;;;;;;;4.97;71.92;97999.69;5100414;28;20367;-55
2023/12/20 04:37:49;;;;;;;8.65;2.95;;;;;;;4.71;72.52;97967.50;5090599;28;20028;-57
2023/12/20 04:40:15;;;;;;;6.22;2.90;;;;;;;4.87;72.09;97993.50;5093038;28;20028;-56
2023/12/20 04:42:40;;;;;;;3.38;2.80;;;;;;;4.87;72.73;97999.63;5091675;28;20173;-57
2023/12/20 04:45:06;;;;;;;4.50;2.70;;;;;;;4.63;72.64;97968.16;5092050;28;20035;-53
2023/12/20 04:47:32;;;;;;;4.30;2.85;;;;;;;4.90;72.75;98003.84;5087055;28;20442;-58
2023/12/20 04:49:57;;;;;;;3.60;3.15;;;;;;;4.89;72.66;98002.19;5072784;28;20032;-56
2023/12/20 04:52:23;;;;;;;6.57;3.33;;;;;;;4.91;72.62;98008.19;5080699;28;20062;-56
2023/12/20 04:54:48;;;;;;;5.32;3.67;;;;;;;4.92;73.00;98003.69;5092598;28;20028;-54
2023/12/20 04:57:14;;;;;;;7.07;3.22;;;;;;;4.88;72.24;98008.44;5093324;28;20028;-56
2023/12/20 04:59:39;;;;;;;5.38;3.10;;;;;;;4.91;72.17;98010.84;5092684;28;20358;-57
2023/12/20 05:02:05;;;;;;;5.80;3.38;;;;;;;4.88;72.14;98003.16;5091837;28;20435;-56
2023/12/20 05:04:30;;;;;;;6.45;3.25;;;;;;;4.87;72.27;97998.81;5092681;28;20020;-54
2023/12/20 05:06:56;;;;;;;4.30;3.45;;;;;;;4.86;72.11;98003.25;5091160;28;20027;-54
2023/12/20 05:09:21;;;;;;;6.50;2.80;;;;;;;4.86;72.23;98007.75;5092526;28;20024;-56
2023/12/20 05:11:47;;;;;;;4.78;2.60;;;;;;;4.85;71.80;98006.06;5092363;28;20445;-58
2023/12/20 05:14:12;;;;;;;5.63;2.90;;;;;;;4.88;72.01;98005.81;5092615;28;20304;-58
2023/12/20 05:16:38;;;;;;;4.47;2.42;;;;;;;4.85;71.46;97990.16;5091749;28;20465;-59
2023/12/20 05:19:06;;;;;;;4.20;2.58;;;;;;;4.83;72.09;98000.06;5092409;28;20097;-57
2023/12/20 05:21:33;;;;;;;3.35;2.28;;;;;;;4.85;71.53;98006.91;5089444;28;20031;-57
2023/12/20 05:23:58;;;;;;;3.97;2.80;;;;;;;4.83;71.69;98005.38;5071710;28;20037;-56
2023/12/20 05:26:24;;;;;;;6.82;2.30;;;;;;;4.84;71.65;98010.50;5071985;28;20047;-55
2023/12/20 05:28:50;;;;;;;5.20;2.45;;;;;;;4.85;71.57;98025.44;5071695;28;20382;-56
2023/12/20 05:31:16;;;;;;;7.55;2.70;;;;;;;4.86;71.49;98007.75;5076446;28;20032;-57
2023/12/20 05:33:42;;;;;;;4.43;2.80;;;;;;;4.88;71.41;98011.09;5092029;28;20093;-56
2023/12/20 05:36:11;;;;;;;5.07;2.80;;;;;;;4.89;71.12;98010.94;5091154;28;20021;-59
2023/12/20 05:38:37;;;;;;;5.55;2.75;;;;;;;4.93;71.19;98031.91;5071610;28;20083;-55
2023/12/20 05:41:03;;;;;;;3.30;2.53;;;;;;;4.88;70.97;98025.19;5071685;28;20056;-57
2023/12/20 05:43:29;;;;;;;5.55;2.83;;;;;;;4.94;71.14;98023.81;5071736;28;20537;-56
2023/12/20 05:45:54;;;;;;;7.30;3.03;;;;;;;4.93;70.78;98019.50;5072271;28;20030;-58
2023/12/20 05:48:20;;;;;;;8.27;3.40;;;;;;;4.90;70.72;98022.41;5072031;28;20028;-58
2023/12/20 05:50:45;;;;;;;6.95;3.35;;;;;;;4.91;70.92;98029.41;5072754;28;20033;-59
2023/12/20 05:53:11;;;;;;;7.75;2.90;;;;;;;4.88;70.72;98027.00;5088323;28;20039;-55
2023/12/20 05:55:36;;;;;;;5.43;2.80;;;;;;;4.92;70.41;98020.47;5092848;28;20024;-58
2023/12/20 05:58:02;;;;;;;4.07;3.13;;;;;;;4.94;70.82;98023.81;5076428;28;20037;-52
2023/12/20 06:00:28;;;;;;;6.95;3.45;;;;;;;4.97;69.87;98026.22;5071697;28;20459;-58
2023/12/20 06:02:54;;;;;;;6.82;3.03;;;;;;;4.87;70.39;98022.69;5073171;28;20032;-57
2023/12/20 06:05:19;;;;;;;4.75;2.90;;;;;;;4.95;69.84;98029.97;5076182;28;20035;-58
2023/12/20 06:07:47;;;;;;;7.38;2.95;;;;;;;4.96;69.79;98032.47;5091960;28;20158;-57
2023/12/20 06:10:13;;;;;;;4.97;3.15;;;;;;;4.81;70.24;98010.78;5095790;28;20024;-59
2023/12/20 06:12:39;;;;;;;6.35;3.03;;;;;;;4.91;70.38;98033.84;5095890;28;20092;-59
2023/12/20 06:15:05;;;;;;;5.80;3.40;;;;;;;4.91;70.09;98034.69;5096049;28;20494;-58
2023/12/20 06:17:31;;;;;;;5.70;3.10;;;;;;;4.95;69.99;98038.75;5092607;28;20024;-59
2023/12/20 06:19:57;;;;;;;7.15;3.00;;;;;;;4.93;69.83;98038.06;5095851;28;20042;-59
2023/12/20 06:22:23;;;;;;;6.25;3.50;;;;;;;4.86;69.99;98021.00;5095710;28;20067;-58
2023/12/20 06:24:48;;;;;;;5.15;3.30;;;;;;;4.98;69.41;98037.66;5095459;28;20027;-60
2023/12/20 06:27:14;;;;;;;7.13;3.97;;;;;;;5.05;69.66;98041.47;5095887;28;20036;-59
2023/12/20 06:29:41;;;;;;;6.72;3.50;;;;;;;5.14;69.93;98047.78;5094057;28;20044;-60
2023/12/20 06:32:06;;;;;;;8.23;3.85;;;;;;;5.18;69.88;98051.84;5095054;28;20040;-60
2023/12/20 06:34:32;;;;;;;6.95;3.88;;;;;;;5.20;69.28;98049.91;5095596;28;20131;-60
2023/12/20 06:36:57;;;;;;;5.22;3.78;;;;;;;5.28;69.21;98052.72;5095348;28;20032;-60
2023/12/20 06:39:23;;;;;;;11.02;3.30;;;;;;;5.34;69.07;98046.03;5082266;28;20094;-57
2023/12/20 06:41:48;;;;;;;5.40;3.33;;;;;;;5.40;68.82;98044.66;5074715;28;20036;-59
2023/12/20 06:44:14;;;;;;;5.47;3.70;;;;;;;5.48;68.34;98046.66;5076337;28;20039;-56
2023/12/20 06:46:39;;;;;;;7.47;3.75;;;;;;;5.52;68.56;98040.91;5075127;28;20349;-59
2023/12/20 06:49:05;;;;;;;7.35;3.10;;;;;;;5.62;67.99;98050.75;5074756;28;20422;-60
2023/12/20 06:51:30;;;;;;;9.82;4.20;;;;;;;5.63;67.48;98029.34;5079919;28;20036;-55
2023/12/20 06:53:56;;;;;;;9.32;3.33;;;;;;;5.62;66.89;98016.22;5074397;28;20089;-58
2023/12/20 06:56:22;;;;;;;5.32;2.90;;;;;;;5.62;67.21;98034.81;5074645;28;20032;-60
2023/12/20 06:58:47;;;;;;;6.68;3.60;;;;;;;5.50;66.82;98028.78;5075535;28;20448;-56
2023/12/20 07:01:14;;;;;;;5.60;3.10;;;;;;;5.58;67.00;98032.44;5075337;28;20493;-55
2023/12/20 07:03:40;;;;;;;4.70;2.75;;;;;;;5.58;67.04;98035.09;5076082;28;20107;-58
2023/12/20 07:06:06;;;;;;;9.40;5.10;;;;;;;5.60;67.07;98040.25;5073664;28;20460;-58
2023/12/20 07:08:32;;;;;;;10.18;5.57;;;;;;;5.65;66.99;98037.19;5074975;28;20100;-57
2023/12/20 07:10:57;;;;;;;25.05;13.82;;;;;;;5.71;66.64;98031.31;5086666;28;20036;-58
2023/12/20 07:13:23;;;;;;;21.55;13.88;;;;;;;5.67;66.81;98030.78;5089174;28;20028;-59
2023/12/20 07:15:48;;;;;;;8.13;4.35;;;;;;;5.72;66.75;98033.84;5111207;28;20122;-63
2023/12/20 07:18:14;;;;;;;8.90;4.55;;;;;;;5.73;66.33;98042.63;5114685;28;20119;-54
2023/12/20 07:20:39;;;;;;;17.17;10.95;;;;;;;5.77;66.21;98052.00;5093929;28;20050;-62
2023/12/20 07:23:05;;;;;;;8.07;4.45;;;;;;;5.69;66.46;98041.25;5094804;28;20031;-63
2023/12/20 07:25:32;;;;;;;5.13;2.90;;;;;;;5.71;66.43;98041.94;5093623;28;20036;-62
2023/12/20 07:27:58;;;;;;;6.40;3.05;;;;;;;5.71;66.53;98047.25;5094466;28;20082;-63
2023/12/20 07:30:24;;;;;;;5.70;3.45;;;;;;;5.75;66.73;98049.50;5094566;28;20036;-63
2023/12/20 07:32:50;;;;;;;8.30;3.70;;;;;;;5.80;66.56;98048.25;5094267;28;20051;-62
2023/12/20 07:35:16;;;;;;;4.70;3.10;;;;;;;5.79;66.83;98060.69;5090328;28;20032;-62
2023/12/20 07:37:41;;;;;;;5.72;3.03;;;;;;;5.77;66.09;98070.59;5091427;28;20027;-62
2023/12/20 07:40:07;;;;;;;6.38;3.25;;;;;;;5.73;66.45;98069.19;5093848;28;20024;-52
2023/12/20 07:42:33;;;;;;;10.13;4.57;;;;;;;5.77;66.82;98065.28;5094263;28;20443;-54
2023/12/20 07:44:59;;;;;;;7.65;3.97;;;;;;;5.75;66.39;98070.75;5093843;28;20030;-56
2023/12/20 07:47:25;;;;;;;9.57;4.20;;;;;;;5.69;66.30;98066.00;5087496;28;20195;-58
2023/12/20 07:49:51;;;;;;;8.50;3.60;;;;;;;5.69;66.31;98070.44;5092254;28;20047;-57
2023/12/20 07:52:21;;;;;;;7.22;3.10;;;;;;;5.74;66.50;98073.53;5095377;28;20458;-53
2023/12/20 07:54:47;;;;;;;9.35;4.35;;;;;;;5.74;66.46;98082.34;5102435;28;20028;-53
2023/12/20 07:57:13;;;;;;;7.63;3.28;;;;;;;5.80;66.00;98077.47;5093722;28;20032;-55
2023/12/20 07:59:38;;;;;;;7.82;3.25;;;;;;;5.77;65.88;98089.19;5093409;28;20036;-50
2023/12/20 08:02:04;;;;;;;10.23;3.75;;;;;;;5.79;65.95;98081.09;5092995;28;20107;-55
2023/12/20 08:04:29;;;;;;;8.40;3.25;;;;;;;5.80;65.65;98091.59;5085648;28;20119;-57
2023/12/20 08:06:55;;;;;;;7.43;3.00;;;;;;;5.51;65.64;98041.88;5093521;28;20042;-56
2023/12/20 08:09:21;;;;;;;4.70;2.72;;;;;;;5.74;65.96;98073.53;5093009;28;20024;-55
2023/12/20 08:11:48;;;;;;;5.78;2.75;;;;;;;5.84;65.77;98082.38;5092840;28;20125;-56
2023/12/20 08:14:13;;;;;;;7.03;2.72;;;;;;;5.87;65.75;98092.72;5093421;28;20133;-57
2023/12/20 08:16:39;;;;;;;4.57;2.95;;;;;;;6.04;65.24;98082.44;5080529;28;20447;-58
2023/12/20 08:19:05;;;;;;;7.95;2.35;;;;;;;6.17;65.13;98084.81;5072785;28;20348;-57
2023/12/20 08:21:31;;;;;;;4.68;2.38;;;;;;;6.28;64.34;98076.69;5072565;28;20131;-57
2023/12/20 08:23:56;;;;;;;6.65;2.60;;;;;;;6.27;64.58;98079.50;5085170;28;20078;-54
2023/12/20 08:26:24;;;;;;;4.25;2.30;;;;;;;6.35;64.40;98089.44;5092328;28;20032;-53
2023/12/20 08:28:50;;;;;;;5.55;2.38;;;;;;;6.34;64.36;98082.44;5092850;28;20382;-54
2023/12/20 08:31:17;;;;;;;4.32;2.03;;;;;;;6.26;64.55;98081.31;5087689;28;20047;-51
2023/12/20 08:33:46;;;;;;;3.67;2.45;;;;;;;6.25;64.88;98079.66;5093006;28;20093;-53
2023/12/20 08:36:12;;;;;;;3.65;1.98;;;;;;;6.18;64.48;98071.38;5093156;28;20035;-53
2023/12/20 08:38:38;;;;;;;6.03;2.58;;;;;;;6.22;64.83;98073.75;5085532;28;20028;-53
2023/12/20 08:41:05;;;;;;;4.50;2.92;;;;;;;6.25;64.60;98062.84;5084472;28;20093;-51
2023/12/20 08:43:31;;;;;;;10.50;2.50;;;;;;;6.28;64.54;98055.44;5088017;28;20035;-57
2023/12/20 08:45:57;;;;;;;9.32;2.60;;;;;;;6.40;64.51;98073.91;5087634;28;20435;-55
2023/12/20 08:48:23;;;;;;;6.13;2.50;;;;;;;6.38;64.54;98068.72;5072785;28;20039;-54
2023/12/20 08:50:50;;;;;;;6.63;2.88;;;;;;;6.35;64.93;98077.00;5072317;28;20020;-55
2023/12/20 08:53:16;;;;;;;5.70;2.83;;;;;;;6.38;64.67;98076.72;5076208;28;20027;-54
2023/12/20 08:55:42;;;;;;;6.28;2.90;;;;;;;6.36;64.86;98067.19;5084543;28;20452;-52
2023/12/20 08:58:08;;;;;;;8.52;2.88;;;;;;;6.31;65.05;98065.78;5091808;28;20197;-54
2023/12/20 09:00:34;;;;;;;6.82;2.63;;;;;;;6.33;65.07;98065.66;5092260;28;20465;-55
2023/12/20 09:03:02;;;;;;;5.53;3.08;;;;;;;6.30;65.23;98071.25;5076546;28;20101;-54
2023/12/20 09:05:28;;;;;;;5.93;2.78;;;;;;;6.25;65.52;98060.19;5079481;28;20235;-54
2023/12/20 09:07:54;;;;;;;5.18;3.00;;;;;;;6.23;65.59;98067.47;5083655;28;20386;-55
2023/12/20 09:10:22;;;;;;;4.55;2.90;;;;;;;6.20;65.89;98059.78;5091764;28;20027;-55
2023/12/20 09:12:57;;;;;;;7.57;3.83;;;;;;;6.27;65.89;98066.19;5092478;28;20039;-55
2023/12/20 09:15:23;;;;;;;;;;;;;;;6.56;65.68;98057.41;5092873;28;20063;-54
2023/12/20 09:17:49;;;;;;;;;;;;;;;6.68;64.86;98055.41;5092356;28;19977;-58
2023/12/20 09:20:15;;;;;;;;;;;;;;;6.65;64.55;98056.53;5092505;28;20074;-60
2023/12/20 09:22:41;;;;;;;;;;;;;;;6.63;64.34;98061.16;5083534;28;19912;-54
2023/12/20 09:25:07;;;;;;;;;;;;;;;6.61;64.60;98069.25;5089990;28;19916;-57
2023/12/20 09:27:33;;;;;;;5.80;3.03;;;;;;;6.16;65.45;98049.44;5092296;28;19912;-57
2023/12/20 09:29:58;;;;;;;8.23;3.58;;;;;;;6.05;66.12;98043.41;5091788;28;20055;-55
2023/12/20 09:32:24;;;;;;;6.05;2.95;;;;;;;6.07;66.50;98062.72;5091758;28;20024;-56
2023/12/20 09:34:49;;;;;;;4.13;2.28;;;;;;;6.03;66.56;98057.69;5092260;28;20126;-53
2023/12/20 09:37:15;;;;;;;3.47;2.45;;;;;;;6.03;66.84;98063.00;5087433;28;20028;-51
2023/12/20 09:39:41;;;;;;;3.92;2.72;;;;;;;5.87;66.63;98038.75;5085580;28;20063;-56
2023/12/20 09:42:07;;;;;;;5.43;2.50;;;;;;;5.91;67.20;98063.22;5076844;28;20029;-53
2023/12/20 09:44:36;;;;;;;3.85;2.53;;;;;;;5.94;67.11;98069.13;5071841;28;20025;-54
2023/12/20 09:47:03;;;;;;;4.78;2.58;;;;;;;5.92;67.36;98060.44;5084208;28;20047;-52
2023/12/20 09:49:30;;;;;;;4.15;2.72;;;;;;;5.93;67.28;98063.91;5094271;28;20027;-52
2023/12/20 09:51:56;;;;;;;6.20;2.55;;;;;;;5.93;67.51;98063.91;5085716;28;20052;-56
2023/12/20 09:54:23;;;;;;;3.97;2.92;;;;;;;5.91;67.34;98058.75;5075477;28;20020;-54
2023/12/20 09:56:49;;;;;;;5.20;3.13;;;;;;;5.97;67.52;98067.97;5084844;28;20046;-55
2023/12/20 09:59:15;;;;;;;5.00;2.70;;;;;;;5.87;68.00;98052.03;5093646;28;20032;-61
2023/12/20 10:01:42;;;;;;;6.03;2.60;;;;;;;5.89;68.08;98066.00;5069695;28;20125;-58
2023/12/20 10:04:11;;;;;;;6.30;2.75;;;;;;;5.85;67.95;98059.28;5072056;28;20029;-56
2023/12/20 10:06:42;;;;;;;4.22;2.85;;;;;;;5.98;68.13;98075.81;5077072;28;20425;-56
2023/12/20 10:09:09;;;;;;;4.55;3.33;;;;;;;5.93;67.80;98080.72;5076216;28;20028;-55
2023/12/20 10:11:39;;;;;;;6.05;3.72;;;;;;;5.86;67.87;98061.81;5080057;28;20040;-54
2023/12/20 10:14:06;;;;;;;4.97;3.15;;;;;;;5.88;68.26;98081.13;5087114;28;20036;-57
2023/12/20 10:16:33;;;;;;;7.22;3.33;;;;;;;5.87;68.38;98078.59;5091476;28;20038;-59
2023/12/20 10:18:59;;;;;;;4.43;2.97;;;;;;;5.87;68.06;98079.44;5093020;28;20039;-61
2023/12/20 10:21:28;;;;;;;4.80;3.10;;;;;;;5.91;68.33;98073.84;5091066;28;20068;-52
2023/12/20 10:23:55;;;;;;;6.97;3.38;;;;;;;5.88;68.32;98075.81;5089548;28;20028;-59
2023/12/20 10:26:22;;;;;;;4.50;2.80;;;;;;;5.96;68.21;98074.28;5079736;28;20032;-56
2023/12/20 10:28:59;;;;;;;3.58;2.88;;;;;;;6.06;67.99;98076.97;5077229;28;20059;-55
2023/12/20 10:31:32;;;;;;;3.28;2.60;;;;;;;6.06;67.63;98067.19;5074071;28;20196;-56
2023/12/20 10:33:59;;;;;;;3.25;2.30;;;;;;;5.98;67.61;98075.81;5085258;28;20072;-60
2023/12/20 10:36:27;;;;;;;2.65;2.00;;;;;;;5.95;67.35;98069.94;5083898;28;20091;-59
2023/12/20 10:38:55;;;;;;;2.97;2.38;;;;;;;5.89;67.94;98077.47;5085870;28;20044;-57
2023/12/20 10:41:25;;;;;;;4.30;2.42;;;;;;;5.92;67.86;98078.19;5081401;28;20038;-56
2023/12/20 10:43:52;;;;;;;5.78;2.47;;;;;;;5.88;67.82;98069.63;5078622;28;20036;-55
2023/12/20 10:46:19;;;;;;;3.00;2.05;;;;;;;5.59;67.75;98028.78;5071584;28;20036;-55
2023/12/20 10:48:46;;;;;;;4.72;2.20;;;;;;;5.86;67.75;98088.38;5071270;28;20142;-54
2023/12/20 10:51:17;;;;;;;3.50;2.00;;;;;;;5.91;67.86;98073.84;5074430;28;20028;-54
2023/12/20 10:53:43;;;;;;;3.95;2.20;;;;;;;5.91;67.72;98079.16;5073806;28;20068;-56
2023/12/20 10:56:15;;;;;;;3.70;2.28;;;;;;;5.95;67.83;98076.09;5072964;28;20025;-57
2023/12/20 10:58:43;;;;;;;3.03;1.92;;;;;;;5.97;67.70;98079.47;5084103;28;20032;-54
2023/12/20 11:01:09;;;;;;;3.90;2.10;;;;;;;6.01;67.35;98077.38;5094138;28;20093;-56
2023/12/20 11:03:39;;;;;;;5.47;1.75;;;;;;;5.97;67.15;98067.97;5094986;28;20040;-59
2023/12/20 11:06:13;;;;;;;3.58;1.95;;;;;;;6.01;66.99;98069.41;5081617;28;20417;-56
2023/12/20 11:08:51;;;;;;;2.38;1.90;;;;;;;6.04;66.88;98077.13;5076425;28;20090;-55
2023/12/20 11:11:17;;;;;;;2.50;1.90;;;;;;;5.97;67.05;98073.28;5075148;28;20024;-54
2023/12/20 11:13:57;;;;;;;2.55;1.77;;;;;;;6.11;66.56;98072.06;5092419;28;20032;-57
2023/12/20 11:16:23;;;;;;;3.13;1.75;;;;;;;6.06;66.48;98067.19;5094299;28;20032;-57
2023/12/20 11:18:50;;;;;;;2.80;1.80;;;;;;;6.09;66.27;98066.91;5094680;28;20038;-58
2023/12/20 11:21:16;;;;;;;6.53;2.10;;;;;;;5.98;66.26;98043.94;5094043;28;20020;-58
2023/12/20 11:23:42;;;;;;;3.13;1.50;;;;;;;6.06;65.78;98055.72;5094791;28;20787;-57
2023/12/20 11:26:08;;;;;;;5.75;1.83;;;;;;;6.03;66.27;98051.53;5094241;28;20036;-60
2023/12/20 11:28:34;;;;;;;4.80;2.05;;;;;;;6.01;66.71;98042.84;5093664;28;20059;-58
2023/12/20 11:31:01;;;;;;;6.85;2.25;;;;;;;6.04;66.87;98047.91;5091598;28;20047;-57
2023/12/20 11:33:31;;;;;;;7.07;2.40;;;;;;;6.09;66.60;98056.28;5074378;28;20036;-54
2023/12/20 11:35:59;;;;;;;3.90;2.53;;;;;;;5.99;67.05;98036.78;5073275;28;20028;-56